Time;durP1;ratioP1;P1;durP2;ratioP2;P2;SDS_P1;SDS_P2;PMS_P1;PMS_P2;Temp;Humidity;BMP_temperature;BMP_pressure;BME280_temperature;BME280_humidity;BME280_pressure;Samples;Min_cycle;Max_cycle;Signal;HPM_P1;HPM_P2
2023/09/26 00:01:33;;;;;;;4.90;1.92;;;;;;;;;;5094640;28;20052;-80
2023/09/26 00:03:59;;;;;;;7.25;2.92;;;;;;;;;;5094235;28;20031;-80
2023/09/26 00:06:25;;;;;;;4.32;2.22;;;;;;;;;;5094431;28;20024;-80
2023/09/26 00:08:55;;;;;;;6.80;2.20;;;;;;;;;;5094448;28;20020;-80
2023/09/26 00:11:21;;;;;;;4.30;2.15;;;;;;;;;;5094108;28;20020;-80
2023/09/26 00:13:51;;;;;;;4.40;2.60;;;;;;;;;;5095606;28;20032;-79
2023/09/26 00:16:17;;;;;;;5.28;2.20;;;;;;;;;;5094329;28;20047;-80
2023/09/26 00:18:43;;;;;;;5.63;2.42;;;;;;;;;;5093797;28;20075;-80
2023/09/26 00:21:12;;;;;;;5.40;2.17;;;;;;;;;;5094403;28;20020;-80
2023/09/26 00:23:38;;;;;;;6.43;2.55;;;;;;;;;;5095080;28;20110;-80
2023/09/26 00:26:07;;;;;;;9.82;2.33;;;;;;;;;;5093887;28;20472;-79
2023/09/26 00:28:33;;;;;;;3.97;1.95;;;;;;;;;;5094173;28;20024;-80
2023/09/26 00:31:03;;;;;;;4.03;2.13;;;;;;;;;;5094125;28;20035;-80
2023/09/26 00:33:29;;;;;;;8.00;2.35;;;;;;;;;;5093672;28;20482;-80
2023/09/26 00:35:55;;;;;;;7.43;2.40;;;;;;;;;;5095279;28;20046;-80
2023/09/26 00:38:22;;;;;;;6.18;2.47;;;;;;;;;;5093839;28;20024;-80
2023/09/26 00:40:48;;;;;;;6.78;2.42;;;;;;;;;;5093837;28;20050;-81
2023/09/26 00:43:21;;;;;;;4.40;2.15;;;;;;;;;;5095157;28;20373;-78
2023/09/26 00:45:49;;;;;;;3.55;2.20;;;;;;;;;;5093711;28;20031;-79
2023/09/26 00:48:15;;;;;;;5.05;2.53;;;;;;;;;;5093673;28;20025;-79
2023/09/26 00:50:41;;;;;;;6.50;2.75;;;;;;;;;;5094960;28;20056;-81
2023/09/26 00:53:07;;;;;;;3.53;1.98;;;;;;;;;;5093783;28;20111;-79
2023/09/26 00:55:33;;;;;;;5.47;2.10;;;;;;;;;;5094213;28;20458;-79
2023/09/26 00:57:59;;;;;;;5.07;2.13;;;;;;;;;;5093574;28;20031;-77
2023/09/26 01:00:26;;;;;;;4.93;2.33;;;;;;;;;;5093290;28;20081;-81
2023/09/26 01:02:53;;;;;;;8.50;3.72;;;;;;;;;;5093644;28;20073;-78
2023/09/26 01:05:19;;;;;;;6.65;2.50;;;;;;;;;;5093431;28;20081;-80
2023/09/26 01:07:46;;;;;;;5.18;2.00;;;;;;;;;;5093028;28;20032;-79
2023/09/26 01:10:12;;;;;;;4.20;2.17;;;;;;;;;;5094930;28;20111;-80
2023/09/26 01:12:39;;;;;;;4.55;1.80;;;;;;;;;;5093322;28;20021;-79
2023/09/26 01:15:05;;;;;;;3.90;2.05;;;;;;;;;;5093039;28;20020;-79
2023/09/26 01:17:32;;;;;;;4.32;2.40;;;;;;;;;;5093897;28;20028;-79
2023/09/26 01:20:11;;;;;;;3.83;2.08;;;;;;;;;;5093088;28;20059;-79
2023/09/26 01:22:37;;;;;;;3.78;1.98;;;;;;;;;;5097275;28;20468;-80
2023/09/26 01:25:03;;;;;;;3.85;2.22;;;;;;;;;;5119313;28;20015;-79
2023/09/26 01:27:29;;;;;;;5.38;2.13;;;;;;;;;;5099954;28;20416;-80
2023/09/26 01:29:55;;;;;;;3.85;1.95;;;;;;;;;;5093285;28;20024;-80
2023/09/26 01:32:22;;;;;;;5.25;2.30;;;;;;;;;;5093026;28;20016;-79
2023/09/26 01:34:49;;;;;;;4.50;2.28;;;;;;;;;;5092803;28;20028;-79
2023/09/26 01:37:15;;;;;;;4.43;2.17;;;;;;;;;;5093528;28;20027;-79
2023/09/26 01:39:41;;;;;;;3.83;1.83;;;;;;;;;;5092898;28;20065;-79
2023/09/26 01:42:07;;;;;;;5.15;2.13;;;;;;;;;;5092583;28;20077;-79
2023/09/26 01:44:33;;;;;;;4.65;2.30;;;;;;;;;;5092898;28;20460;-78
2023/09/26 01:46:59;;;;;;;5.18;2.10;;;;;;;;;;5092760;28;20063;-80
2023/09/26 01:49:26;;;;;;;4.88;1.90;;;;;;;;;;5092450;28;20533;-79
2023/09/26 01:51:52;;;;;;;5.85;2.35;;;;;;;;;;5092862;28;20464;-79
2023/09/26 01:54:18;;;;;;;4.60;1.70;;;;;;;;;;5092752;28;20016;-79
2023/09/26 01:56:44;;;;;;;4.22;1.95;;;;;;;;;;5092742;28;20118;-78
2023/09/26 01:59:10;;;;;;;4.60;2.47;;;;;;;;;;5092760;28;20017;-81
2023/09/26 02:01:36;;;;;;;7.47;2.38;;;;;;;;;;5092727;28;20103;-81
2023/09/26 02:04:02;;;;;;;7.00;2.45;;;;;;;;;;5092382;28;20024;-79
2023/09/26 02:06:28;;;;;;;3.13;1.77;;;;;;;;;;5092345;28;20032;-80
2023/09/26 02:08:54;;;;;;;5.40;2.17;;;;;;;;;;5092832;28;20429;-80
2023/09/26 02:11:21;;;;;;;4.63;2.30;;;;;;;;;;5092177;28;20026;-80
2023/09/26 02:13:47;;;;;;;5.18;2.40;;;;;;;;;;5094977;28;20024;-79
2023/09/26 02:16:13;;;;;;;6.65;2.25;;;;;;;;;;5097921;28;20479;-80
2023/09/26 02:18:39;;;;;;;4.38;2.20;;;;;;;;;;5097495;28;20071;-79
2023/09/26 02:21:05;;;;;;;4.82;2.30;;;;;;;;;;5096914;28;20058;-79
2023/09/26 02:23:32;;;;;;;3.95;2.33;;;;;;;;;;5096529;28;20031;-79
2023/09/26 02:25:58;;;;;;;7.07;2.20;;;;;;;;;;5096521;28;20017;-80
2023/09/26 02:28:24;;;;;;;5.68;2.50;;;;;;;;;;5097657;28;20036;-80
2023/09/26 02:30:50;;;;;;;5.43;2.05;;;;;;;;;;5096082;28;20024;-80
2023/09/26 02:33:16;;;;;;;5.93;2.45;;;;;;;;;;5096599;28;20024;-79
2023/09/26 02:35:42;;;;;;;5.43;2.47;;;;;;;;;;5096266;28;20035;-80
2023/09/26 02:38:08;;;;;;;6.07;2.67;;;;;;;;;;5095997;28;20493;-80
2023/09/26 02:40:34;;;;;;;4.00;1.90;;;;;;;;;;5097004;28;20024;-80
2023/09/26 02:43:00;;;;;;;6.72;2.15;;;;;;;;;;5097423;28;20024;-80
2023/09/26 02:45:27;;;;;;;5.50;2.63;;;;;;;;;;5095792;28;20423;-81
2023/09/26 02:47:53;;;;;;;7.15;2.17;;;;;;;;;;5096096;28;20475;-81
2023/09/26 02:50:21;;;;;;;5.15;2.40;;;;;;;;;;5096317;28;20031;-79
2023/09/26 02:52:47;;;;;;;5.63;2.55;;;;;;;;;;5095553;28;20496;-80
2023/09/26 02:55:13;;;;;;;3.00;1.92;;;;;;;;;;5096767;28;20414;-80
2023/09/26 02:57:39;;;;;;;4.30;2.08;;;;;;;;;;5095919;28;20020;-80
2023/09/26 03:00:16;;;;;;;5.40;2.17;;;;;;;;;;5095489;28;20107;-80
2023/09/26 03:02:42;;;;;;;4.38;2.15;;;;;;;;;;5096344;28;20364;-79
2023/09/26 03:05:09;;;;;;;3.85;2.10;;;;;;;;;;5095793;28;20353;-80
2023/09/26 03:07:36;;;;;;;5.88;2.45;;;;;;;;;;5095195;28;20052;-80
2023/09/26 03:10:02;;;;;;;5.38;2.10;;;;;;;;;;5095725;28;20030;-80
2023/09/26 03:12:28;;;;;;;5.35;2.13;;;;;;;;;;5096043;28;20085;-80
2023/09/26 03:14:55;;;;;;;4.32;2.20;;;;;;;;;;5095621;28;20028;-79
2023/09/26 03:17:22;;;;;;;7.30;2.08;;;;;;;;;;5095547;28;20048;-80
2023/09/26 03:19:48;;;;;;;6.22;3.08;;;;;;;;;;5094982;28;20399;-80
2023/09/26 03:22:14;;;;;;;3.70;2.28;;;;;;;;;;5095324;28;20031;-80
2023/09/26 03:24:40;;;;;;;3.75;2.25;;;;;;;;;;5095256;28;20041;-81
2023/09/26 03:27:06;;;;;;;6.50;2.15;;;;;;;;;;5095181;28;20027;-80
2023/09/26 03:29:32;;;;;;;6.32;2.88;;;;;;;;;;5096535;28;20415;-80
2023/09/26 03:31:58;;;;;;;4.95;2.05;;;;;;;;;;5095768;28;20482;-80
2023/09/26 03:34:24;;;;;;;4.65;2.25;;;;;;;;;;5095033;28;20020;-81
2023/09/26 03:36:51;;;;;;;4.30;2.00;;;;;;;;;;5095181;28;20024;-81
2023/09/26 03:39:17;;;;;;;3.63;1.65;;;;;;;;;;5095004;28;20024;-80
2023/09/26 03:41:43;;;;;;;3.97;2.03;;;;;;;;;;5094950;28;20457;-80
2023/09/26 03:44:09;;;;;;;3.58;2.03;;;;;;;;;;5095877;28;20027;-80
2023/09/26 03:46:36;;;;;;;4.57;2.03;;;;;;;;;;5095942;28;20508;-79
2023/09/26 03:49:02;;;;;;;4.60;2.25;;;;;;;;;;5094653;28;20020;-80
2023/09/26 03:51:28;;;;;;;3.78;1.90;;;;;;;;;;5094977;28;20027;-81
2023/09/26 03:53:54;;;;;;;5.88;2.50;;;;;;;;;;5094903;28;20016;-79
2023/09/26 03:56:20;;;;;;;6.55;3.15;;;;;;;;;;5094546;28;20069;-79
2023/09/26 03:58:46;;;;;;;3.38;2.05;;;;;;;;;;5094816;28;20062;-81
2023/09/26 04:01:14;;;;;;;10.15;2.65;;;;;;;;;;5094740;28;20020;-80
2023/09/26 04:03:41;;;;;;;3.80;2.05;;;;;;;;;;5094482;28;20023;-81
2023/09/26 04:06:07;;;;;;;5.30;2.25;;;;;;;;;;5094700;28;20028;-81
2023/09/26 04:08:34;;;;;;;5.32;2.33;;;;;;;;;;5094102;28;20024;-81
2023/09/26 04:11:00;;;;;;;4.32;2.45;;;;;;;;;;5095610;28;20459;-80
2023/09/26 04:13:26;;;;;;;3.55;1.88;;;;;;;;;;5094722;28;20115;-81
2023/09/26 04:15:52;;;;;;;4.57;2.15;;;;;;;;;;5094198;28;20051;-82
2023/09/26 04:18:19;;;;;;;3.80;1.95;;;;;;;;;;5095300;28;20031;-81
2023/09/26 04:20:45;;;;;;;3.78;2.15;;;;;;;;;;5095476;28;20099;-81
2023/09/26 04:23:11;;;;;;;5.68;2.20;;;;;;;;;;5094122;28;20032;-81
2023/09/26 04:25:37;;;;;;;4.63;2.08;;;;;;;;;;5095627;28;20023;-81
2023/09/26 04:28:04;;;;;;;5.60;2.20;;;;;;;;;;5094235;28;20028;-80
2023/09/26 04:30:30;;;;;;;6.90;2.65;;;;;;;;;;5095251;28;20035;-81
2023/09/26 04:32:57;;;;;;;4.25;2.38;;;;;;;;;;5094148;28;20020;-80
2023/09/26 04:35:23;;;;;;;7.40;2.75;;;;;;;;;;5093642;28;20020;-81
2023/09/26 04:37:49;;;;;;;4.13;1.92;;;;;;;;;;5093885;28;20024;-79
2023/09/26 04:40:16;;;;;;;5.90;2.20;;;;;;;;;;5094046;28;20016;-80
2023/09/26 04:42:50;;;;;;;4.03;2.20;;;;;;;;;;5094825;28;20521;-82
2023/09/26 04:45:16;;;;;;;5.70;2.65;;;;;;;;;;5094034;28;20530;-82
2023/09/26 04:47:42;;;;;;;4.25;2.45;;;;;;;;;;5094165;28;20357;-81
2023/09/26 04:50:09;;;;;;;5.40;2.30;;;;;;;;;;5093887;28;20043;-81
2023/09/26 04:52:36;;;;;;;4.43;1.80;;;;;;;;;;5093373;28;20380;-79
2023/09/26 04:55:02;;;;;;;4.65;2.10;;;;;;;;;;5093640;28;20016;-81
2023/09/26 04:57:28;;;;;;;3.47;2.15;;;;;;;;;;5093309;28;20016;-81
2023/09/26 04:59:54;;;;;;;12.90;2.72;;;;;;;;;;5093769;28;20528;-81
2023/09/26 05:02:20;;;;;;;6.97;2.55;;;;;;;;;;5093510;28;20031;-81
2023/09/26 05:04:48;;;;;;;3.60;2.15;;;;;;;;;;5093108;28;20024;-79
2023/09/26 05:07:14;;;;;;;9.07;2.78;;;;;;;;;;5094764;28;20020;-80
2023/09/26 05:09:40;;;;;;;9.07;2.38;;;;;;;;;;5093373;28;20032;-80
2023/09/26 05:12:07;;;;;;;9.73;3.05;;;;;;;;;;5093042;28;20083;-79
2023/09/26 05:14:33;;;;;;;5.40;2.63;;;;;;;;;;5093512;28;20529;-81
2023/09/26 05:16:59;;;;;;;5.90;2.38;;;;;;;;;;5093287;28;20028;-80
2023/09/26 05:19:25;;;;;;;5.35;2.47;;;;;;;;;;5102376;28;20036;-81
2023/09/26 05:21:52;;;;;;;5.43;2.63;;;;;;;;;;5118847;28;20012;-80
2023/09/26 05:24:22;;;;;;;5.75;2.85;;;;;;;;;;5096524;28;20028;-81
2023/09/26 05:26:48;;;;;;;4.28;2.17;;;;;;;;;;5093015;28;20024;-79
2023/09/26 05:29:14;;;;;;;5.47;2.45;;;;;;;;;;5093404;28;20459;-81
2023/09/26 05:31:40;;;;;;;4.28;2.30;;;;;;;;;;5093038;28;20023;-81
2023/09/26 05:34:07;;;;;;;7.00;2.90;;;;;;;;;;5093036;28;20118;-80
2023/09/26 05:36:33;;;;;;;5.32;2.58;;;;;;;;;;5092810;28;20028;-79
2023/09/26 05:38:59;;;;;;;3.63;2.17;;;;;;;;;;5093089;28;20379;-80
2023/09/26 05:41:25;;;;;;;5.35;2.50;;;;;;;;;;5092846;28;20090;-81
2023/09/26 05:43:51;;;;;;;6.18;2.35;;;;;;;;;;5092874;28;20031;-81
2023/09/26 05:46:18;;;;;;;7.15;2.78;;;;;;;;;;5092826;28;20401;-80
2023/09/26 05:48:44;;;;;;;4.80;2.35;;;;;;;;;;5091849;28;20028;-81
2023/09/26 05:51:10;;;;;;;6.43;2.42;;;;;;;;;;5092492;28;20024;-81
2023/09/26 05:53:36;;;;;;;6.40;2.25;;;;;;;;;;5092595;28;20031;-81
2023/09/26 05:56:03;;;;;;;5.35;2.58;;;;;;;;;;5092774;28;20024;-80
2023/09/26 05:58:29;;;;;;;6.43;2.42;;;;;;;;;;5094341;28;20028;-79
2023/09/26 06:00:59;;;;;;;5.20;2.47;;;;;;;;;;5092430;28;20467;-79
2023/09/26 06:03:26;;;;;;;5.80;2.47;;;;;;;;;;5093251;28;20418;-80
2023/09/26 06:05:52;;;;;;;8.75;2.95;;;;;;;;;;5093109;28;20107;-81
2023/09/26 06:08:18;;;;;;;5.40;2.38;;;;;;;;;;5092387;28;20423;-81
2023/09/26 06:10:45;;;;;;;5.32;2.42;;;;;;;;;;5092825;28;20127;-80
2023/09/26 06:13:13;;;;;;;5.78;2.30;;;;;;;;;;5093937;28;20368;-81
2023/09/26 06:15:41;;;;;;;5.45;2.30;;;;;;;;;;5092751;28;20097;-79
2023/09/26 06:18:07;;;;;;;4.93;2.78;;;;;;;;;;5092291;28;20039;-79
2023/09/26 06:20:37;;;;;;;4.22;2.05;;;;;;;;;;5092518;28;20024;-81
2023/09/26 06:23:03;;;;;;;5.38;2.47;;;;;;;;;;5092470;28;20115;-79
2023/09/26 06:25:29;;;;;;;4.47;2.60;;;;;;;;;;5092520;28;20032;-80
2023/09/26 06:27:56;;;;;;;4.88;2.33;;;;;;;;;;5093941;28;20031;-80
2023/09/26 06:30:22;;;;;;;7.80;2.50;;;;;;;;;;5092235;28;20035;-80
2023/09/26 06:32:48;;;;;;;6.28;2.42;;;;;;;;;;5092984;28;20577;-81
2023/09/26 06:35:14;;;;;;;3.60;2.28;;;;;;;;;;5093827;28;20066;-80
2023/09/26 06:37:40;;;;;;;4.75;2.97;;;;;;;;;;5092180;28;20486;-82
2023/09/26 06:40:07;;;;;;;11.15;3.05;;;;;;;;;;5093087;28;20028;-81
2023/09/26 06:42:34;;;;;;;6.57;2.65;;;;;;;;;;5092729;28;20025;-81
2023/09/26 06:45:00;;;;;;;10.18;2.58;;;;;;;;;;5092281;28;20508;-80
2023/09/26 06:47:26;;;;;;;6.18;2.88;;;;;;;;;;5092459;28;20060;-82
2023/09/26 06:49:53;;;;;;;6.05;2.50;;;;;;;;;;5092444;28;20024;-81
2023/09/26 06:52:20;;;;;;;6.13;2.97;;;;;;;;;;5092291;28;20529;-82
2023/09/26 06:54:46;;;;;;;2.95;1.92;;;;;;;;;;5092376;28;20016;-80
2023/09/26 06:57:15;;;;;;;8.27;2.47;;;;;;;;;;5092005;28;20024;-82
2023/09/26 06:59:41;;;;;;;7.32;2.60;;;;;;;;;;5094119;28;20024;-80
2023/09/26 07:02:08;;;;;;;4.75;2.25;;;;;;;;;;5097089;28;20073;-80
2023/09/26 07:04:35;;;;;;;5.53;1.92;;;;;;;;;;5096978;28;20024;-80
2023/09/26 07:07:02;;;;;;;5.78;2.28;;;;;;;;;;5095769;28;20028;-80
2023/09/26 07:09:28;;;;;;;7.07;2.13;;;;;;;;;;5095760;28;20028;-80
2023/09/26 07:11:56;;;;;;;4.55;2.20;;;;;;;;;;5095555;28;20055;-81
2023/09/26 07:14:22;;;;;;;4.97;2.45;;;;;;;;;;5095940;28;20486;-82
2023/09/26 07:16:50;;;;;;;4.50;1.88;;;;;;;;;;5096676;28;20059;-80
2023/09/26 07:19:16;;;;;;;4.57;1.92;;;;;;;;;;5095216;28;20097;-82
2023/09/26 07:21:42;;;;;;;4.70;2.30;;;;;;;;;;5095744;28;20081;-83
2023/09/26 07:24:09;;;;;;;3.78;2.15;;;;;;;;;;5095772;28;20519;-82
2023/09/26 07:26:35;;;;;;;3.22;1.60;;;;;;;;;;5096523;28;20028;-85
2023/09/26 07:29:01;;;;;;;3.50;1.92;;;;;;;;;;5095534;28;20071;-81
2023/09/26 07:31:30;;;;;;;4.10;2.17;;;;;;;;;;5095837;28;20023;-84
2023/09/26 07:33:56;;;;;;;3.83;1.88;;;;;;;;;;5095520;28;20073;-80
2023/09/26 07:36:22;;;;;;;4.25;2.17;;;;;;;;;;5095384;28;20091;-80
2023/09/26 07:38:49;;;;;;;4.90;2.17;;;;;;;;;;5095330;28;20028;-80
2023/09/26 07:41:15;;;;;;;7.95;2.22;;;;;;;;;;5095485;28;20024;-80
2023/09/26 07:43:41;;;;;;;7.38;2.28;;;;;;;;;;5095217;28;20524;-81
2023/09/26 07:46:09;;;;;;;5.50;2.03;;;;;;;;;;5094965;28;20032;-81
2023/09/26 07:48:35;;;;;;;6.03;3.05;;;;;;;;;;5095184;28;20054;-80
2023/09/26 07:51:02;;;;;;;3.53;1.90;;;;;;;;;;5095394;28;20044;-79
2023/09/26 07:53:28;;;;;;;4.10;2.15;;;;;;;;;;5094651;28;20103;-79
2023/09/26 07:55:58;;;;;;;3.58;1.88;;;;;;;;;;5094858;28;20021;-81
2023/09/26 07:58:25;;;;;;;4.18;2.10;;;;;;;;;;5095785;28;20479;-80
2023/09/26 08:00:53;;;;;;;4.13;1.63;;;;;;;;;;5094409;28;20020;-79
2023/09/26 08:03:20;;;;;;;4.45;1.75;;;;;;;;;;5094559;28;20027;-80
2023/09/26 08:05:46;;;;;;;4.50;2.22;;;;;;;;;;5094714;28;20023;-80
2023/09/26 08:08:13;;;;;;;7.45;2.58;;;;;;;;;;5094244;28;20112;-79
2023/09/26 08:10:39;;;;;;;4.03;1.77;;;;;;;;;;5093713;28;20024;-78
2023/09/26 08:13:06;;;;;;;3.55;1.75;;;;;;;;;;5094655;28;20024;-78
2023/09/26 08:15:34;;;;;;;2.67;1.42;;;;;;;;;;5094395;28;20073;-80
2023/09/26 08:18:00;;;;;;;3.55;1.40;;;;;;;;;;5094248;28;20043;-78
2023/09/26 08:20:26;;;;;;;2.75;1.33;;;;;;;;;;5093835;28;20076;-80
2023/09/26 08:22:52;;;;;;;2.47;1.30;;;;;;;;;;5094221;28;20455;-79
2023/09/26 08:25:18;;;;;;;4.97;1.60;;;;;;;;;;5096060;28;20364;-81
2023/09/26 08:27:44;;;;;;;3.33;1.50;;;;;;;;;;5093868;28;20040;-79
2023/09/26 08:30:14;;;;;;;2.35;0.98;;;;;;;;;;5094360;28;20057;-79
2023/09/26 08:32:41;;;;;;;2.50;1.15;;;;;;;;;;5094091;28;20020;-80
2023/09/26 08:35:08;;;;;;;5.88;1.40;;;;;;;;;;5094205;28;20387;-79
2023/09/26 08:37:35;;;;;;;5.57;1.50;;;;;;;;;;5094061;28;20539;-79
2023/09/26 08:40:01;;;;;;;2.92;1.30;;;;;;;;;;5094194;28;20072;-78
2023/09/26 08:42:28;;;;;;;2.67;1.63;;;;;;;;;;5093778;28;20092;-79
2023/09/26 08:44:54;;;;;;;1.95;1.13;;;;;;;;;;5095336;28;20026;-80
2023/09/26 08:47:24;;;;;;;3.20;1.45;;;;;;;;;;5093722;28;20066;-79
2023/09/26 08:49:54;;;;;;;2.40;1.30;;;;;;;;;;5093610;28;20024;-79
2023/09/26 08:52:26;;;;;;;2.75;1.23;;;;;;;;;;5093782;28;20016;-80
2023/09/26 08:54:52;;;;;;;;;;;;;;;;;;5094078;28;20460;-80
2023/09/26 08:57:19;;;;;;;1.52;0.95;;;;;;;;;;5110436;28;19904;-79
2023/09/26 08:59:49;;;;;;;3.10;1.38;;;;;;;;;;5093640;28;20024;-81
2023/09/26 09:02:16;;;;;;;2.63;1.10;;;;;;;;;;5093723;28;20017;-81
2023/09/26 09:04:45;;;;;;;4.20;1.35;;;;;;;;;;5095221;28;20109;-81
2023/09/26 09:07:12;;;;;;;3.92;1.88;;;;;;;;;;5094521;28;20020;-80
2023/09/26 09:09:58;;;;;;;2.08;1.10;;;;;;;;;;5093253;28;20135;-79
2023/09/26 09:12:30;;;;;;;3.72;1.15;;;;;;;;;;5093424;28;20047;-81
2023/09/26 09:14:56;;;;;;;;;;;;;;;;;;5093009;28;20022;-81
2023/09/26 09:17:23;;;;;;;2.08;1.15;;;;;;;;;;5109083;28;19995;-81
2023/09/26 09:19:51;;;;;;;2.53;1.25;;;;;;;;;;5094168;28;20048;-79
2023/09/26 09:22:18;;;;;;;2.35;1.10;;;;;;;;;;5093642;28;20027;-79
2023/09/26 09:24:52;;;;;;;3.47;1.30;;;;;;;;;;5113451;28;20012;-80
2023/09/26 09:27:28;;;;;;;5.38;1.20;;;;;;;;;;5116080;28;20040;-79
2023/09/26 09:30:11;;;;;;;2.78;1.55;;;;;;;;;;5104441;28;20046;-82
2023/09/26 09:32:40;;;;;;;2.40;1.27;;;;;;;;;;5099393;28;20024;-81
2023/09/26 09:35:08;;;;;;;2.15;1.17;;;;;;;;;;5097487;28;20421;-79
2023/09/26 09:37:34;;;;;;;3.55;1.27;;;;;;;;;;5093301;28;20020;-78
2023/09/26 09:40:01;;;;;;;2.80;1.45;;;;;;;;;;5093287;28;20455;-79
2023/09/26 09:42:27;;;;;;;3.22;1.60;;;;;;;;;;5093336;28;20032;-78
2023/09/26 09:44:53;;;;;;;3.50;1.80;;;;;;;;;;5092992;28;20110;-79
2023/09/26 09:47:24;;;;;;;9.27;1.73;;;;;;;;;;5093350;28;20020;-80
2023/09/26 09:49:51;;;;;;;2.88;1.40;;;;;;;;;;5093173;28;20364;-81
2023/09/26 09:52:19;;;;;;;5.30;1.77;;;;;;;;;;5092798;28;20460;-80
2023/09/26 09:54:46;;;;;;;2.30;1.20;;;;;;;;;;5096450;28;20024;-79
2023/09/26 09:57:14;;;;;;;4.00;1.80;;;;;;;;;;5094087;28;20039;-82
2023/09/26 09:59:41;;;;;;;3.35;1.40;;;;;;;;;;5093076;28;20035;-82
2023/09/26 10:02:10;;;;;;;1.95;1.05;;;;;;;;;;5093938;28;20024;-80
2023/09/26 10:04:39;;;;;;;3.13;1.25;;;;;;;;;;5093081;28;20057;-81
2023/09/26 10:07:07;;;;;;;2.50;1.45;;;;;;;;;;5093038;28;20563;-80
2023/09/26 10:09:33;;;;;;;2.55;1.20;;;;;;;;;;5094338;28;20418;-79
2023/09/26 10:12:00;;;;;;;6.43;1.73;;;;;;;;;;5093114;28;20028;-79
2023/09/26 10:14:30;;;;;;;2.45;1.10;;;;;;;;;;5092777;28;20027;-80
2023/09/26 10:16:59;;;;;;;3.20;1.30;;;;;;;;;;5092778;28;20056;-81
2023/09/26 10:19:28;;;;;;;3.35;1.67;;;;;;;;;;5091943;28;20533;-81
2023/09/26 10:22:13;;;;;;;2.80;1.38;;;640.60;1971.20;;;;;;5091609;28;20020;-80
2023/09/26 10:24:47;;;;;;;2.78;1.25;;;640.60;1996.80;;;;;;5092380;28;20099;-81
2023/09/26 10:27:13;;;;;;;3.58;1.60;;;640.70;1971.20;;;;;;5094467;28;20038;-83
2023/09/26 10:29:38;;;;;;;3.72;1.88;;;640.90;1971.20;;;;;;5094020;28;20115;-83
2023/09/26 10:32:08;;;;;;;6.22;1.35;;;640.90;1971.20;;;;;;5093191;28;20020;-84
2023/09/26 10:34:37;;;;;;;2.05;1.10;;;640.90;1945.60;;;;;;5094212;28;20468;-82
2023/09/26 10:37:15;;;;;;;2.88;1.40;;;;;;;;;;5095727;28;20181;-84
2023/09/26 10:39:43;;;;;;;1.75;1.02;;;;;;;;;;5096314;28;20024;-78
2023/09/26 10:42:13;;;;;;;3.03;1.33;;;;;;;;;;5095758;28;20162;-80
2023/09/26 10:44:46;;;;;;;3.75;1.45;;;;;;;;;;5096439;28;20384;-81
2023/09/26 10:47:15;;;;;;;2.92;1.10;;;;;;;;;;5096828;28;20020;-82
2023/09/26 10:49:43;;;;;;;2.28;1.10;;;;;;;;;;5091548;28;20123;-80
2023/09/26 10:52:09;;;;;;;3.60;1.23;;;;;;;;;;5096649;28;20028;-83
2023/09/26 10:54:37;;;;;;;2.08;1.00;;;;;;;;;;5087288;28;20020;-81
2023/09/26 10:57:03;;;;;;;2.70;1.10;;;;;;;;;;5076571;28;20025;-81
2023/09/26 10:59:29;;;;;;;2.35;1.13;;;;;;;;;;5075795;28;20031;-82
2023/09/26 11:01:56;;;;;;;2.30;1.20;;;;;;;;;;5075519;28;20112;-81
2023/09/26 11:04:24;;;;;;;2.42;1.20;;;;;;;;;;5075539;28;20020;-83
2023/09/26 11:06:50;;;;;;;2.42;1.30;;;;;;;;;;5075688;28;20021;-81
2023/09/26 11:09:16;;;;;;;2.72;1.20;;;;;;;;;;5075178;28;20028;-82
2023/09/26 11:11:43;;;;;;;4.28;1.50;;;;;;;;;;5075484;28;20028;-82
2023/09/26 11:14:09;;;;;;;2.58;1.10;;;;;;;;;;5076796;28;20103;-82
2023/09/26 11:16:35;;;;;;;2.10;1.08;;;;;;;;;;5075111;28;20050;-84
2023/09/26 11:19:01;;;;;;;3.53;1.30;;;;;;;;;;5075596;28;20074;-82
2023/09/26 11:21:27;;;;;;;3.83;1.35;;;;;;;;;;5075390;28;20025;-81
2023/09/26 11:23:53;;;;;;;6.45;1.42;;;;;;;;;;5075286;28;20096;-82
2023/09/26 11:26:19;;;;;;;3.67;1.35;;;;;;;;;;5076026;28;20020;-83
2023/09/26 11:28:45;;;;;;;3.83;1.20;;;;;;;;;;5075301;28;20476;-82
2023/09/26 11:31:13;;;;;;;2.58;1.25;;;;;;;;;;5075036;28;20029;-82
2023/09/26 11:33:39;;;;;;;2.35;1.20;;;;;;;;;;5075084;28;20032;-80
2023/09/26 11:36:05;;;;;;;3.53;1.13;;;;;;;;;;5075200;28;20436;-81
2023/09/26 11:38:32;;;;;;;3.70;1.08;;;;;;;;;;5074846;28;20056;-83
2023/09/26 11:40:58;;;;;;;4.05;1.50;;;;;;;;;;5084486;28;20073;-82
2023/09/26 11:43:24;;;;;;;2.97;1.25;;;;;;;;;;5094824;28;20052;-83
2023/09/26 11:46:00;;;;;;;2.38;1.10;;;;;;;;;;5094064;28;20031;-83
2023/09/26 11:48:27;;;;;;;2.67;1.30;;;;;;;;;;5090327;28;20020;-81
2023/09/26 11:50:53;;;;;;;3.65;1.63;;;;;;;;;;5074516;28;20024;-81
2023/09/26 11:53:19;;;;;;;3.28;1.40;;;;;;;;;;5074701;28;20055;-81
2023/09/26 11:55:51;;;;;;;3.83;1.48;;;;;;;;;;5074701;28;20103;-82
2023/09/26 11:58:17;;;;;;;5.13;1.55;;;;;;;;;;5074673;28;20476;-82
2023/09/26 12:00:44;;;;;;;2.85;1.30;;;;;;;;;;5076003;28;20025;-81
2023/09/26 12:03:10;;;;;;;3.00;1.40;;;;;;;;;;5058014;28;20032;-82
2023/09/26 12:05:37;;;;;;;2.63;1.05;;;;;;;;;;5074389;28;20393;-81
2023/09/26 12:08:03;;;;;;;3.10;1.55;;;;;;;;;;5074135;28;20032;-82
2023/09/26 12:10:29;;;;;;;4.20;1.40;;;;;;;;;;5074343;28;20032;-80
2023/09/26 12:12:55;;;;;;;2.35;1.20;;;;;;;;;;5073580;28;20376;-81
2023/09/26 12:15:22;;;;;;;5.55;1.20;;;;;;;;;;5084747;28;20027;-80
2023/09/26 12:17:51;;;;;;;2.20;1.27;;;;;;;;;;5094377;28;20059;-80
2023/09/26 12:20:21;;;;;;;2.92;1.17;;;;;;;;;;5093852;28;20146;-80
2023/09/26 12:22:54;;;;;;;1.65;0.90;;;;;;;;;;5094352;28;20054;-79
2023/09/26 12:25:24;;;;;;;3.15;1.58;;;;;;;;;;5094123;28;20073;-82
2023/09/26 12:27:53;;;;;;;3.22;1.40;;;;;;;;;;5094331;28;20383;-78
2023/09/26 12:30:20;;;;;;;3.25;1.10;;;;;;;;;;5095034;28;20035;-80
2023/09/26 12:32:46;;;;;;;3.13;1.35;;;;;;;;;;5093896;28;20031;-80
2023/09/26 12:35:13;;;;;;;5.43;1.30;;;;;;;;;;5094142;28;20026;-80
2023/09/26 12:37:40;;;;;;;2.58;1.05;;;;;;;;;;5094131;28;20024;-80
2023/09/26 12:40:10;;;;;;;2.53;1.17;;;;;;;;;;5094035;28;20349;-80
2023/09/26 12:42:37;;;;;;;3.65;1.27;;;;;;;;;;5094037;28;20031;-81
2023/09/26 12:45:03;;;;;;;1.90;0.98;;;;;;;;;;5095169;28;20469;-78
2023/09/26 12:47:30;;;;;;;3.35;1.55;;;;;;;;;;5093241;28;20060;-77
2023/09/26 12:49:56;;;;;;;3.15;1.23;;;;;;;;;;5094241;28;20020;-79
2023/09/26 12:52:26;;;;;;;2.47;1.10;;;;;;;;;;5093679;28;20524;-80
2023/09/26 12:54:53;;;;;;;2.67;1.02;;;;;;;;;;5093428;28;20094;-78
2023/09/26 12:57:19;;;;;;;2.75;1.13;;;;;;;;;;5093198;28;20023;-78
2023/09/26 12:59:45;;;;;;;4.25;1.30;;;;;;;;;;5093935;28;20020;-79
2023/09/26 13:02:11;;;;;;;3.05;1.08;;;;;;;;;;5094622;28;20074;-79
2023/09/26 13:04:37;;;;;;;3.78;1.65;;;;;;;;;;5093538;28;20050;-80
2023/09/26 13:07:03;;;;;;;5.13;1.00;;;;;;;;;;5094816;28;20028;-80
2023/09/26 13:09:29;;;;;;;3.92;1.17;;;;;;;;;;5099235;28;20031;-81
2023/09/26 13:11:55;;;;;;;1.80;1.00;;;;;;;;;;5118976;28;20111;-80
2023/09/26 13:14:21;;;;;;;2.13;1.15;;;;;;;;;;5100994;28;20081;-80
2023/09/26 13:16:47;;;;;;;2.05;1.08;;;;;;;;;;5095269;28;20479;-79
2023/09/26 13:19:14;;;;;;;3.28;1.45;;;;;;;;;;5093344;28;20048;-79
2023/09/26 13:21:40;;;;;;;2.55;1.17;;;;;;;;;;5092990;28;20020;-79
2023/09/26 13:24:06;;;;;;;4.32;1.40;;;;;;;;;;5093231;28;20081;-78
2023/09/26 13:26:32;;;;;;;2.22;1.10;;;;;;;;;;5092997;28;20026;-77
2023/09/26 13:28:58;;;;;;;1.67;1.05;;;;;;;;;;5094480;28;20032;-78
2023/09/26 13:31:24;;;;;;;2.65;1.10;;;;;;;;;;5092916;28;20027;-78
2023/09/26 13:33:50;;;;;;;2.42;0.98;;;;;;;;;;5092629;28;20023;-78
2023/09/26 13:36:16;;;;;;;2.33;1.05;;;;;;;;;;5093173;28;20494;-78
2023/09/26 13:38:43;;;;;;;4.10;1.10;;;;;;;;;;5092900;28;20092;-77
2023/09/26 13:41:09;;;;;;;4.93;1.33;;;;;;;;;;5092607;28;20111;-78
2023/09/26 13:43:35;;;;;;;2.72;1.23;;;;;;;;;;5092895;28;20028;-77
2023/09/26 13:46:02;;;;;;;3.90;1.25;;;;;;;;;;5092560;28;20031;-77
2023/09/26 13:48:28;;;;;;;2.15;1.10;;;;;;;;;;5094244;28;20111;-77
2023/09/26 13:50:54;;;;;;;2.42;1.20;;;;;;;;;;5094294;28;20064;-78
2023/09/26 13:53:20;;;;;;;2.67;0.90;;;;;;;;;;5093536;28;20391;-77
2023/09/26 13:55:46;;;;;;;4.60;1.25;;;;;;;;;;5094270;28;20074;-78
2023/09/26 13:58:12;;;;;;;2.17;1.10;;;;;;;;;;5092632;28;20032;-77
2023/09/26 14:00:38;;;;;;;4.38;1.30;;;;;;;;;;5092352;28;20028;-77
2023/09/26 14:03:05;;;;;;;1.83;0.93;;;;;;;;;;5092541;28;20020;-77
2023/09/26 14:05:31;;;;;;;3.20;1.20;;;;;;;;;;5092672;28;20024;-78
2023/09/26 14:07:57;;;;;;;2.88;1.00;;;;;;;;;;5093484;28;20024;-77
2023/09/26 14:10:23;;;;;;;7.15;1.20;;;;;;;;;;5097008;28;20539;-78
2023/09/26 14:12:49;;;;;;;6.72;1.40;;;;;;;;;;5096683;28;20078;-78
2023/09/26 14:15:15;;;;;;;2.25;0.90;;;;;;;;;;5096481;28;20115;-78
2023/09/26 14:17:41;;;;;;;1.80;1.00;;;;;;;;;;5096651;28;20416;-77
2023/09/26 14:20:08;;;;;;;1.98;1.00;;;;;;;;;;5098688;28;20052;-78
2023/09/26 14:22:34;;;;;;;2.03;1.05;;;;;;;;;;5096203;28;20020;-77
2023/09/26 14:25:00;;;;;;;6.38;1.38;;;;;;;;;;5096924;28;20031;-78
2023/09/26 14:27:26;;;;;;;2.25;1.05;;;;;;;;;;5096779;28;20032;-78
2023/09/26 14:29:54;;;;;;;2.63;1.20;;;;;;;;;;5095992;28;20379;-77
2023/09/26 14:32:20;;;;;;;2.83;1.20;;;;;;;;;;5096893;28;20388;-78
2023/09/26 14:34:46;;;;;;;2.88;0.88;;;;;;;;;;5096258;28;20115;-77
2023/09/26 14:37:12;;;;;;;4.82;1.52;;;;;;;;;;5095907;28;20100;-77
2023/09/26 14:39:38;;;;;;;2.25;1.10;;;;;;;;;;5096248;28;20020;-78